sensor_id;sensor_type;location;lat;lon;timestamp;P1;durP1;ratioP1;P2;durP2;ratioP2
1699;SDS011;847;48.058;7.810;2022-12-07T00:23:38;27.43;;;17.50;;
1699;SDS011;847;48.058;7.810;2022-12-07T00:26:05;24.10;;;17.53;;
1699;SDS011;847;48.058;7.810;2022-12-07T00:38:57;26.13;;;16.37;;
1699;SDS011;847;48.058;7.810;2022-12-07T00:57:22;27.20;;;17.93;;
1699;SDS011;847;48.058;7.810;2022-12-07T00:59:48;40.80;;;19.83;;
1699;SDS011;847;48.058;7.810;2022-12-07T01:02:20;33.53;;;19.87;;
1699;SDS011;847;48.058;7.810;2022-12-07T01:04:47;28.90;;;19.73;;
1699;SDS011;847;48.058;7.810;2022-12-07T01:07:14;30.47;;;19.60;;
1699;SDS011;847;48.058;7.810;2022-12-07T01:09:41;26.33;;;18.33;;
1699;SDS011;847;48.058;7.810;2022-12-07T01:12:08;27.83;;;20.07;;
1699;SDS011;847;48.058;7.810;2022-12-07T01:14:36;27.23;;;18.37;;
1699;SDS011;847;48.058;7.810;2022-12-07T01:17:03;27.50;;;19.30;;
1699;SDS011;847;48.058;7.810;2022-12-07T01:27:16;27.90;;;19.60;;
1699;SDS011;847;48.058;7.810;2022-12-07T01:42:41;26.17;;;16.47;;
1699;SDS011;847;48.058;7.810;2022-12-07T01:50:31;24.93;;;16.50;;
1699;SDS011;847;48.058;7.810;2022-12-07T01:52:58;23.93;;;16.67;;
1699;SDS011;847;48.058;7.810;2022-12-07T02:49:52;21.37;;;13.70;;
1699;SDS011;847;48.058;7.810;2022-12-07T03:28:36;20.67;;;14.30;;
1699;SDS011;847;48.058;7.810;2022-12-07T03:38:55;22.10;;;14.47;;
1699;SDS011;847;48.058;7.810;2022-12-07T03:41:27;20.40;;;13.87;;
1699;SDS011;847;48.058;7.810;2022-12-07T03:49:10;18.70;;;13.30;;
1699;SDS011;847;48.058;7.810;2022-12-07T03:51:45;20.90;;;13.30;;
1699;SDS011;847;48.058;7.810;2022-12-07T03:54:18;21.70;;;13.40;;
1699;SDS011;847;48.058;7.810;2022-12-07T04:02:01;18.00;;;11.60;;
1699;SDS011;847;48.058;7.810;2022-12-07T04:04:30;19.57;;;12.87;;
1699;SDS011;847;48.058;7.810;2022-12-07T04:22:32;20.47;;;12.73;;
1699;SDS011;847;48.058;7.810;2022-12-07T04:40:57;17.53;;;13.00;;
1699;SDS011;847;48.058;7.810;2022-12-07T04:43:24;18.00;;;12.10;;
1699;SDS011;847;48.058;7.810;2022-12-07T04:45:51;20.10;;;13.77;;
1699;SDS011;847;48.058;7.810;2022-12-07T04:56:06;18.20;;;12.80;;
1699;SDS011;847;48.058;7.810;2022-12-07T05:32:14;19.90;;;12.40;;
1699;SDS011;847;48.058;7.810;2022-12-07T05:37:16;15.20;;;11.40;;
1699;SDS011;847;48.058;7.810;2022-12-07T06:16:06;23.97;;;14.77;;
1699;SDS011;847;48.058;7.810;2022-12-07T09:15:46;11.97;;;8.80;;
1699;SDS011;847;48.058;7.810;2022-12-07T09:18:13;7.73;;;6.83;;
1699;SDS011;847;48.058;7.810;2022-12-07T09:20:41;9.27;;;6.90;;
1699;SDS011;847;48.058;7.810;2022-12-07T09:46:31;21.97;;;6.47;;
1699;SDS011;847;48.058;7.810;2022-12-07T10:22:56;9.37;;;6.60;;
1699;SDS011;847;48.058;7.810;2022-12-07T10:25:27;9.93;;;7.33;;
1699;SDS011;847;48.058;7.810;2022-12-07T10:41:19;11.00;;;7.97;;
1699;SDS011;847;48.058;7.810;2022-12-07T12:12:47;9.77;;;6.20;;
1699;SDS011;847;48.058;7.810;2022-12-07T12:29:19;8.80;;;6.00;;
1699;SDS011;847;48.058;7.810;2022-12-07T13:04:17;5.13;;;4.50;;
1699;SDS011;847;48.058;7.810;2022-12-07T13:25:31;11.20;;;7.50;;
1699;SDS011;847;48.058;7.810;2022-12-07T13:28:09;18.63;;;13.20;;
1699;SDS011;847;48.058;7.810;2022-12-07T13:31:33;8.00;;;6.57;;
1699;SDS011;847;48.058;7.810;2022-12-07T13:34:02;6.80;;;5.80;;
1699;SDS011;847;48.058;7.810;2022-12-07T13:36:33;4.97;;;3.80;;
1699;SDS011;847;48.058;7.810;2022-12-07T13:42:19;3.53;;;3.13;;
1699;SDS011;847;48.058;7.810;2022-12-07T13:47:28;4.20;;;2.93;;
1699;SDS011;847;48.058;7.810;2022-12-07T13:50:21;5.07;;;4.13;;
1699;SDS011;847;48.058;7.810;2022-12-07T13:52:55;6.90;;;4.17;;
1699;SDS011;847;48.058;7.810;2022-12-07T13:55:30;6.20;;;4.27;;
1699;SDS011;847;48.058;7.810;2022-12-07T13:58:07;6.60;;;4.70;;
1699;SDS011;847;48.058;7.810;2022-12-07T14:00:44;7.60;;;5.53;;
1699;SDS011;847;48.058;7.810;2022-12-07T14:13:54;8.40;;;6.07;;
1699;SDS011;847;48.058;7.810;2022-12-07T14:16:25;8.70;;;6.73;;
1699;SDS011;847;48.058;7.810;2022-12-07T14:18:55;7.40;;;5.77;;
1699;SDS011;847;48.058;7.810;2022-12-07T14:21:24;8.10;;;6.17;;
1699;SDS011;847;48.058;7.810;2022-12-07T14:26:45;14.93;;;10.80;;
1699;SDS011;847;48.058;7.810;2022-12-07T14:32:17;30.57;;;18.53;;
1699;SDS011;847;48.058;7.810;2022-12-07T14:34:57;13.73;;;10.40;;
1699;SDS011;847;48.058;7.810;2022-12-07T14:37:27;13.87;;;9.83;;
1699;SDS011;847;48.058;7.810;2022-12-07T14:39:55;15.30;;;11.10;;
1699;SDS011;847;48.058;7.810;2022-12-07T15:08:26;11.97;;;7.20;;
1699;SDS011;847;48.058;7.810;2022-12-07T15:18:46;12.63;;;7.53;;
1699;SDS011;847;48.058;7.810;2022-12-07T15:21:27;9.97;;;7.67;;
1699;SDS011;847;48.058;7.810;2022-12-07T15:39:31;8.87;;;6.53;;
1699;SDS011;847;48.058;7.810;2022-12-07T16:02:43;11.00;;;7.43;;
1699;SDS011;847;48.058;7.810;2022-12-07T16:08:05;12.13;;;8.93;;
1699;SDS011;847;48.058;7.810;2022-12-07T16:10:32;11.77;;;9.10;;
1699;SDS011;847;48.058;7.810;2022-12-07T16:13:02;15.47;;;9.90;;
1699;SDS011;847;48.058;7.810;2022-12-07T16:15:29;14.07;;;9.40;;
1699;SDS011;847;48.058;7.810;2022-12-07T16:17:57;13.13;;;9.43;;
1699;SDS011;847;48.058;7.810;2022-12-07T16:20:24;15.50;;;10.13;;
1699;SDS011;847;48.058;7.810;2022-12-07T16:22:51;13.57;;;10.00;;
1699;SDS011;847;48.058;7.810;2022-12-07T16:25:18;13.03;;;9.23;;
1699;SDS011;847;48.058;7.810;2022-12-07T16:27:45;10.47;;;8.47;;
1699;SDS011;847;48.058;7.810;2022-12-07T16:30:13;13.17;;;9.07;;
1699;SDS011;847;48.058;7.810;2022-12-07T16:32:41;9.40;;;7.93;;
1699;SDS011;847;48.058;7.810;2022-12-07T16:35:10;11.33;;;8.10;;
1699;SDS011;847;48.058;7.810;2022-12-07T16:37:38;10.03;;;7.97;;
1699;SDS011;847;48.058;7.810;2022-12-07T16:40:06;11.77;;;8.40;;
1699;SDS011;847;48.058;7.810;2022-12-07T16:42:34;8.70;;;6.20;;
1699;SDS011;847;48.058;7.810;2022-12-07T16:45:01;8.80;;;6.43;;
1699;SDS011;847;48.058;7.810;2022-12-07T16:47:29;6.90;;;6.07;;
1699;SDS011;847;48.058;7.810;2022-12-07T16:49:58;8.33;;;6.00;;
1699;SDS011;847;48.058;7.810;2022-12-07T16:55:07;8.23;;;6.53;;
1699;SDS011;847;48.058;7.810;2022-12-07T16:57:35;7.33;;;5.93;;
1699;SDS011;847;48.058;7.810;2022-12-07T17:00:02;7.63;;;6.40;;
1699;SDS011;847;48.058;7.810;2022-12-07T17:02:30;7.90;;;6.80;;
1699;SDS011;847;48.058;7.810;2022-12-07T17:04:56;9.10;;;7.67;;
1699;SDS011;847;48.058;7.810;2022-12-07T17:07:23;10.20;;;8.60;;
1699;SDS011;847;48.058;7.810;2022-12-07T17:09:51;10.00;;;8.20;;
1699;SDS011;847;48.058;7.810;2022-12-07T17:12:20;12.37;;;9.23;;
1699;SDS011;847;48.058;7.810;2022-12-07T17:14:47;11.37;;;10.10;;
1699;SDS011;847;48.058;7.810;2022-12-07T17:17:31;16.20;;;11.30;;
1699;SDS011;847;48.058;7.810;2022-12-07T17:19:58;11.77;;;9.83;;
1699;SDS011;847;48.058;7.810;2022-12-07T17:22:24;9.27;;;8.27;;
1699;SDS011;847;48.058;7.810;2022-12-07T17:24:51;8.23;;;7.10;;
1699;SDS011;847;48.058;7.810;2022-12-07T17:27:19;8.17;;;6.17;;
1699;SDS011;847;48.058;7.810;2022-12-07T17:29:47;8.60;;;7.70;;
1699;SDS011;847;48.058;7.810;2022-12-07T17:32:14;7.67;;;6.03;;
1699;SDS011;847;48.058;7.810;2022-12-07T17:34:40;7.47;;;5.63;;
1699;SDS011;847;48.058;7.810;2022-12-07T17:37:07;7.37;;;5.43;;
1699;SDS011;847;48.058;7.810;2022-12-07T17:39:34;7.77;;;6.57;;
1699;SDS011;847;48.058;7.810;2022-12-07T17:42:01;8.50;;;7.03;;
1699;SDS011;847;48.058;7.810;2022-12-07T17:44:48;9.07;;;7.20;;
1699;SDS011;847;48.058;7.810;2022-12-07T17:47:15;9.80;;;8.60;;
1699;SDS011;847;48.058;7.810;2022-12-07T17:49:43;14.37;;;9.30;;
1699;SDS011;847;48.058;7.810;2022-12-07T17:52:10;16.20;;;10.30;;
1699;SDS011;847;48.058;7.810;2022-12-07T17:54:55;12.80;;;8.90;;
1699;SDS011;847;48.058;7.810;2022-12-07T17:57:22;9.67;;;8.53;;
1699;SDS011;847;48.058;7.810;2022-12-07T17:59:50;12.67;;;7.80;;
1699;SDS011;847;48.058;7.810;2022-12-07T18:02:19;8.70;;;7.07;;
1699;SDS011;847;48.058;7.810;2022-12-07T18:04:49;8.90;;;7.87;;
1699;SDS011;847;48.058;7.810;2022-12-07T18:07:17;7.57;;;6.70;;
1699;SDS011;847;48.058;7.810;2022-12-07T18:09:44;13.07;;;8.90;;
1699;SDS011;847;48.058;7.810;2022-12-07T18:12:12;14.97;;;10.73;;
1699;SDS011;847;48.058;7.810;2022-12-07T18:14:42;18.43;;;12.60;;
1699;SDS011;847;48.058;7.810;2022-12-07T18:17:11;14.60;;;11.77;;
1699;SDS011;847;48.058;7.810;2022-12-07T18:19:38;13.90;;;11.20;;
1699;SDS011;847;48.058;7.810;2022-12-07T18:22:05;21.10;;;15.23;;
1699;SDS011;847;48.058;7.810;2022-12-07T18:24:33;15.70;;;12.90;;
1699;SDS011;847;48.058;7.810;2022-12-07T18:27:02;11.83;;;10.60;;
1699;SDS011;847;48.058;7.810;2022-12-07T18:29:29;11.40;;;8.93;;
1699;SDS011;847;48.058;7.810;2022-12-07T18:31:57;9.20;;;7.00;;
1699;SDS011;847;48.058;7.810;2022-12-07T18:34:25;11.57;;;8.60;;
1699;SDS011;847;48.058;7.810;2022-12-07T18:36:54;12.77;;;9.03;;
1699;SDS011;847;48.058;7.810;2022-12-07T18:39:22;12.50;;;8.90;;
1699;SDS011;847;48.058;7.810;2022-12-07T18:41:49;13.00;;;9.70;;
1699;SDS011;847;48.058;7.810;2022-12-07T18:44:16;14.33;;;12.03;;
1699;SDS011;847;48.058;7.810;2022-12-07T18:46:44;15.33;;;11.57;;
1699;SDS011;847;48.058;7.810;2022-12-07T18:49:12;21.73;;;19.40;;
1699;SDS011;847;48.058;7.810;2022-12-07T18:51:41;13.73;;;12.33;;
1699;SDS011;847;48.058;7.810;2022-12-07T18:54:09;9.77;;;7.60;;
1699;SDS011;847;48.058;7.810;2022-12-07T18:56:36;10.17;;;9.07;;
1699;SDS011;847;48.058;7.810;2022-12-07T18:59:04;9.07;;;8.17;;
1699;SDS011;847;48.058;7.810;2022-12-07T19:01:50;10.00;;;9.03;;
1699;SDS011;847;48.058;7.810;2022-12-07T19:04:19;13.00;;;10.80;;
1699;SDS011;847;48.058;7.810;2022-12-07T19:06:49;9.70;;;7.93;;
1699;SDS011;847;48.058;7.810;2022-12-07T19:09:21;10.13;;;7.70;;
1699;SDS011;847;48.058;7.810;2022-12-07T19:12:09;11.53;;;7.90;;
1699;SDS011;847;48.058;7.810;2022-12-07T19:14:37;9.33;;;8.30;;
1699;SDS011;847;48.058;7.810;2022-12-07T19:17:05;11.80;;;8.70;;
1699;SDS011;847;48.058;7.810;2022-12-07T19:19:34;13.20;;;10.53;;
1699;SDS011;847;48.058;7.810;2022-12-07T19:22:04;13.50;;;10.40;;
1699;SDS011;847;48.058;7.810;2022-12-07T19:24:33;14.57;;;9.43;;
1699;SDS011;847;48.058;7.810;2022-12-07T19:27:00;12.57;;;10.23;;
1699;SDS011;847;48.058;7.810;2022-12-07T19:29:29;16.67;;;11.73;;
1699;SDS011;847;48.058;7.810;2022-12-07T19:31:56;15.47;;;10.17;;
1699;SDS011;847;48.058;7.810;2022-12-07T19:34:23;12.50;;;9.30;;
1699;SDS011;847;48.058;7.810;2022-12-07T19:36:50;12.50;;;9.50;;
1699;SDS011;847;48.058;7.810;2022-12-07T19:39:18;14.10;;;11.30;;
1699;SDS011;847;48.058;7.810;2022-12-07T19:41:46;20.40;;;14.60;;
1699;SDS011;847;48.058;7.810;2022-12-07T19:44:13;20.60;;;15.37;;
1699;SDS011;847;48.058;7.810;2022-12-07T19:46:41;14.70;;;10.00;;
1699;SDS011;847;48.058;7.810;2022-12-07T19:49:11;12.63;;;9.00;;
1699;SDS011;847;48.058;7.810;2022-12-07T19:51:40;15.07;;;11.00;;
1699;SDS011;847;48.058;7.810;2022-12-07T19:54:08;15.60;;;13.40;;
1699;SDS011;847;48.058;7.810;2022-12-07T19:56:40;13.90;;;10.23;;
1699;SDS011;847;48.058;7.810;2022-12-07T19:59:09;13.07;;;10.37;;
1699;SDS011;847;48.058;7.810;2022-12-07T20:01:37;16.53;;;11.47;;
1699;SDS011;847;48.058;7.810;2022-12-07T20:04:06;12.67;;;10.37;;
1699;SDS011;847;48.058;7.810;2022-12-07T20:06:36;11.27;;;9.50;;
1699;SDS011;847;48.058;7.810;2022-12-07T20:09:03;11.07;;;8.67;;
1699;SDS011;847;48.058;7.810;2022-12-07T20:11:31;11.03;;;8.40;;
1699;SDS011;847;48.058;7.810;2022-12-07T20:14:17;10.40;;;8.10;;
1699;SDS011;847;48.058;7.810;2022-12-07T20:16:44;12.30;;;8.60;;
1699;SDS011;847;48.058;7.810;2022-12-07T20:19:12;11.40;;;8.70;;
1699;SDS011;847;48.058;7.810;2022-12-07T20:21:40;11.23;;;8.63;;
1699;SDS011;847;48.058;7.810;2022-12-07T20:24:09;14.37;;;10.10;;
1699;SDS011;847;48.058;7.810;2022-12-07T20:26:38;19.10;;;13.83;;
1699;SDS011;847;48.058;7.810;2022-12-07T20:29:09;17.10;;;12.43;;
1699;SDS011;847;48.058;7.810;2022-12-07T20:31:40;10.77;;;8.90;;
1699;SDS011;847;48.058;7.810;2022-12-07T20:34:11;9.70;;;8.33;;
1699;SDS011;847;48.058;7.810;2022-12-07T20:39:17;12.70;;;7.83;;
1699;SDS011;847;48.058;7.810;2022-12-07T20:46:56;10.30;;;7.43;;
1699;SDS011;847;48.058;7.810;2022-12-07T20:49:23;13.03;;;8.67;;
1699;SDS011;847;48.058;7.810;2022-12-07T20:51:51;8.90;;;6.20;;
1699;SDS011;847;48.058;7.810;2022-12-07T20:54:18;9.47;;;8.50;;
1699;SDS011;847;48.058;7.810;2022-12-07T20:56:46;8.70;;;7.57;;
1699;SDS011;847;48.058;7.810;2022-12-07T20:59:14;7.83;;;6.40;;
1699;SDS011;847;48.058;7.810;2022-12-07T21:01:41;11.47;;;8.37;;
1699;SDS011;847;48.058;7.810;2022-12-07T21:04:11;7.93;;;6.90;;
1699;SDS011;847;48.058;7.810;2022-12-07T21:06:39;10.30;;;8.13;;
1699;SDS011;847;48.058;7.810;2022-12-07T21:09:08;11.37;;;8.30;;
1699;SDS011;847;48.058;7.810;2022-12-07T21:11:37;10.77;;;7.97;;
1699;SDS011;847;48.058;7.810;2022-12-07T21:14:04;9.87;;;7.37;;
1699;SDS011;847;48.058;7.810;2022-12-07T21:16:31;11.00;;;7.30;;
1699;SDS011;847;48.058;7.810;2022-12-07T21:18:59;8.23;;;6.20;;
1699;SDS011;847;48.058;7.810;2022-12-07T21:21:29;8.10;;;6.63;;
1699;SDS011;847;48.058;7.810;2022-12-07T21:23:57;7.97;;;6.70;;
1699;SDS011;847;48.058;7.810;2022-12-07T21:26:24;9.53;;;6.53;;
1699;SDS011;847;48.058;7.810;2022-12-07T21:28:52;9.47;;;6.47;;
1699;SDS011;847;48.058;7.810;2022-12-07T21:31:19;10.40;;;7.90;;
1699;SDS011;847;48.058;7.810;2022-12-07T21:33:47;10.67;;;9.33;;
1699;SDS011;847;48.058;7.810;2022-12-07T21:36:14;9.10;;;8.20;;
1699;SDS011;847;48.058;7.810;2022-12-07T21:38:44;7.70;;;6.60;;
1699;SDS011;847;48.058;7.810;2022-12-07T21:41:12;10.00;;;9.10;;
1699;SDS011;847;48.058;7.810;2022-12-07T21:43:41;9.00;;;7.47;;
1699;SDS011;847;48.058;7.810;2022-12-07T21:46:09;7.87;;;6.60;;
1699;SDS011;847;48.058;7.810;2022-12-07T21:48:37;10.30;;;8.80;;
1699;SDS011;847;48.058;7.810;2022-12-07T21:51:06;10.90;;;7.47;;
1699;SDS011;847;48.058;7.810;2022-12-07T21:53:34;9.40;;;7.83;;
1699;SDS011;847;48.058;7.810;2022-12-07T21:56:02;11.73;;;9.27;;
1699;SDS011;847;48.058;7.810;2022-12-07T21:58:30;12.43;;;8.50;;
1699;SDS011;847;48.058;7.810;2022-12-07T22:00:57;11.03;;;7.33;;
1699;SDS011;847;48.058;7.810;2022-12-07T22:03:24;13.50;;;7.60;;
1699;SDS011;847;48.058;7.810;2022-12-07T22:05:51;11.20;;;8.93;;
1699;SDS011;847;48.058;7.810;2022-12-07T22:08:24;14.00;;;10.73;;
1699;SDS011;847;48.058;7.810;2022-12-07T22:10:50;8.73;;;7.60;;
1699;SDS011;847;48.058;7.810;2022-12-07T22:13:18;9.30;;;6.90;;
1699;SDS011;847;48.058;7.810;2022-12-07T22:15:57;9.30;;;7.00;;
1699;SDS011;847;48.058;7.810;2022-12-07T22:18:23;9.77;;;6.23;;
1699;SDS011;847;48.058;7.810;2022-12-07T22:20:50;7.90;;;6.33;;
1699;SDS011;847;48.058;7.810;2022-12-07T22:23:17;11.20;;;6.90;;
1699;SDS011;847;48.058;7.810;2022-12-07T22:25:44;9.77;;;7.33;;
1699;SDS011;847;48.058;7.810;2022-12-07T22:28:11;9.27;;;6.70;;
1699;SDS011;847;48.058;7.810;2022-12-07T22:30:39;6.77;;;5.80;;
1699;SDS011;847;48.058;7.810;2022-12-07T22:33:06;10.40;;;7.13;;
1699;SDS011;847;48.058;7.810;2022-12-07T22:35:33;8.87;;;6.57;;
1699;SDS011;847;48.058;7.810;2022-12-07T22:38:01;8.53;;;6.13;;
1699;SDS011;847;48.058;7.810;2022-12-07T22:40:28;8.50;;;5.87;;
1699;SDS011;847;48.058;7.810;2022-12-07T22:42:55;9.27;;;6.67;;
1699;SDS011;847;48.058;7.810;2022-12-07T22:45:25;10.77;;;7.67;;
1699;SDS011;847;48.058;7.810;2022-12-07T22:47:54;8.23;;;7.10;;
1699;SDS011;847;48.058;7.810;2022-12-07T22:50:21;10.43;;;6.87;;
1699;SDS011;847;48.058;7.810;2022-12-07T22:52:48;8.27;;;5.93;;
1699;SDS011;847;48.058;7.810;2022-12-07T22:55:16;7.17;;;5.57;;
1699;SDS011;847;48.058;7.810;2022-12-07T22:57:43;6.90;;;5.23;;
1699;SDS011;847;48.058;7.810;2022-12-07T23:00:10;6.50;;;5.60;;
1699;SDS011;847;48.058;7.810;2022-12-07T23:02:38;9.50;;;6.70;;
1699;SDS011;847;48.058;7.810;2022-12-07T23:05:07;9.57;;;6.57;;
1699;SDS011;847;48.058;7.810;2022-12-07T23:07:34;9.43;;;8.23;;
1699;SDS011;847;48.058;7.810;2022-12-07T23:10:02;8.53;;;6.83;;
1699;SDS011;847;48.058;7.810;2022-12-07T23:12:29;11.03;;;7.00;;
1699;SDS011;847;48.058;7.810;2022-12-07T23:15:14;14.33;;;8.37;;
1699;SDS011;847;48.058;7.810;2022-12-07T23:17:41;12.50;;;9.57;;
1699;SDS011;847;48.058;7.810;2022-12-07T23:20:10;14.33;;;8.77;;
1699;SDS011;847;48.058;7.810;2022-12-07T23:22:37;12.37;;;9.30;;
1699;SDS011;847;48.058;7.810;2022-12-07T23:25:04;11.97;;;8.47;;
1699;SDS011;847;48.058;7.810;2022-12-07T23:27:32;10.20;;;8.00;;
1699;SDS011;847;48.058;7.810;2022-12-07T23:29:59;12.23;;;7.97;;
1699;SDS011;847;48.058;7.810;2022-12-07T23:32:26;9.60;;;6.90;;
1699;SDS011;847;48.058;7.810;2022-12-07T23:34:53;11.07;;;8.30;;
1699;SDS011;847;48.058;7.810;2022-12-07T23:37:21;12.13;;;7.90;;
1699;SDS011;847;48.058;7.810;2022-12-07T23:39:48;11.10;;;7.70;;
1699;SDS011;847;48.058;7.810;2022-12-07T23:42:15;9.80;;;6.90;;
1699;SDS011;847;48.058;7.810;2022-12-07T23:44:42;11.53;;;8.03;;
1699;SDS011;847;48.058;7.810;2022-12-07T23:47:09;8.63;;;7.43;;
1699;SDS011;847;48.058;7.810;2022-12-07T23:49:36;9.90;;;7.50;;
1699;SDS011;847;48.058;7.810;2022-12-07T23:52:03;11.33;;;7.83;;
1699;SDS011;847;48.058;7.810;2022-12-07T23:54:31;13.40;;;8.00;;
1699;SDS011;847;48.058;7.810;2022-12-07T23:56:58;8.83;;;7.77;;
1699;SDS011;847;48.058;7.810;2022-12-07T23:59:25;16.33;;;9.03;;
